Time;durP1;ratioP1;P1;durP2;ratioP2;P2;SDS_P1;SDS_P2;PMS_P1;PMS_P2;Temp;Humidity;BMP_temperature;BMP_pressure;BME280_temperature;BME280_humidity;BME280_pressure;Samples;Min_cycle;Max_cycle;Signal;HPM_P1;HPM_P2
2021/08/28 00:00:06;;;;;;;12.27;4.18;;;;;;;13.48;100.00;101496.28;5035094;28;21465;-64
2021/08/28 00:02:34;;;;;;;17.42;4.47;;;;;;;13.44;100.00;101492.00;5022150;28;20046;-63
2021/08/28 00:05:00;;;;;;;13.23;4.13;;;;;;;13.41;100.00;101492.06;5029184;28;20427;-64
2021/08/28 00:07:27;;;;;;;15.18;4.40;;;;;;;13.40;100.00;101485.13;5026031;28;20053;-64
2021/08/28 00:09:53;;;;;;;14.75;5.05;;;;;;;13.32;100.00;101483.50;5028462;28;20060;-65
2021/08/28 00:12:20;;;;;;;15.23;4.97;;;;;;;13.34;100.00;101486.91;5025710;28;20049;-63
2021/08/28 00:14:46;;;;;;;15.88;4.68;;;;;;;13.34;100.00;101483.44;5027717;28;20069;-64
2021/08/28 00:17:13;;;;;;;16.67;4.80;;;;;;;13.37;100.00;101479.03;5024883;28;20061;-59
2021/08/28 00:19:40;;;;;;;15.20;4.38;;;;;;;13.37;100.00;101480.78;5024513;28;20053;-64
2021/08/28 00:22:07;;;;;;;16.02;4.43;;;;;;;13.36;100.00;101474.69;5028266;28;20054;-63
2021/08/28 00:24:33;;;;;;;12.82;4.25;;;;;;;13.42;100.00;101473.75;5020721;28;20049;-63
2021/08/28 00:27:00;;;;;;;15.00;4.60;;;;;;;13.43;100.00;101475.47;5022949;28;20056;-63
2021/08/28 00:29:26;;;;;;;17.48;5.38;;;;;;;13.44;100.00;101465.84;5027886;28;20053;-63
2021/08/28 00:31:52;;;;;;;19.10;5.07;;;;;;;13.48;100.00;101467.53;5022337;28;20053;-64
2021/08/28 00:34:19;;;;;;;16.70;5.45;;;;;;;13.43;100.00;101465.00;5029110;28;20052;-64
2021/08/28 00:36:47;;;;;;;16.55;4.93;;;;;;;13.43;100.00;101467.63;5024249;28;20053;-64
2021/08/28 00:39:13;;;;;;;13.75;4.93;;;;;;;13.44;100.00;101466.75;5030263;28;20056;-64
2021/08/28 00:41:40;;;;;;;14.43;5.45;;;;;;;13.46;100.00;101472.81;5029342;28;20054;-64
2021/08/28 00:44:06;;;;;;;16.10;5.07;;;;;;;13.45;100.00;101463.22;5026078;28;20091;-64
2021/08/28 00:46:32;;;;;;;18.15;5.15;;;;;;;13.45;100.00;101463.22;5041912;22;20562;-67
2021/08/28 00:49:00;;;;;;;14.10;5.20;;;;;;;13.41;100.00;101461.56;5015572;28;20586;-69
2021/08/28 00:51:26;;;;;;;15.02;4.55;;;;;;;13.43;100.00;101477.19;5025183;28;20069;-67
2021/08/28 00:53:54;;;;;;;13.25;4.93;;;;;;;13.38;100.00;101483.34;5026251;28;20084;-68
2021/08/28 00:56:20;;;;;;;17.05;5.32;;;;;;;13.40;100.00;101482.50;5018034;28;20081;-67
2021/08/28 00:58:47;;;;;;;15.95;6.15;;;;;;;13.42;100.00;101483.34;5001319;28;20046;-67
2021/08/28 01:01:17;;;;;;;14.48;5.30;;;;;;;13.43;100.00;101485.03;5001847;28;20050;-67
2021/08/28 01:03:45;;;;;;;14.38;5.25;;;;;;;13.38;100.00;101488.59;5000560;28;20050;-67
2021/08/28 01:06:18;;;;;;;15.73;5.65;;;;;;;13.41;100.00;101487.69;5001207;28;20073;-67
2021/08/28 01:08:46;;;;;;;15.98;5.60;;;;;;;13.45;100.00;101489.38;5004560;28;20042;-67
2021/08/28 01:11:19;;;;;;;18.00;6.07;;;;;;;13.50;100.00;101489.28;5002356;28;20053;-67
2021/08/28 01:13:50;;;;;;;12.85;5.50;;;;;;;13.45;100.00;101483.25;4998922;28;20050;-69
2021/08/28 01:16:18;;;;;;;13.93;5.80;;;;;;;13.51;100.00;101489.25;4996097;28;20140;-67
2021/08/28 01:18:46;;;;;;;18.50;5.65;;;;;;;13.47;100.00;101482.38;5008406;28;20490;-67
2021/08/28 01:21:23;;;;;;;17.25;5.88;;;;;;;13.50;100.00;101491.91;5000435;28;20061;-67
2021/08/28 01:23:50;;;;;;;15.93;6.47;;;;;;;13.51;100.00;101491.00;4995580;28;20050;-67
2021/08/28 01:26:21;;;;;;;14.70;6.45;;;;;;;13.54;100.00;101488.31;4996288;28;20512;-67
2021/08/28 01:28:54;;;;;;;17.23;6.22;;;;;;;13.57;100.00;101482.19;5001596;28;20053;-67
2021/08/28 01:31:22;;;;;;;13.63;6.25;;;;;;;13.59;100.00;101483.00;4995862;28;20061;-67
2021/08/28 01:33:51;;;;;;;11.55;5.60;;;;;;;13.60;100.00;101482.09;5005131;28;20052;-67
2021/08/28 01:36:18;;;;;;;18.67;6.22;;;;;;;13.62;100.00;101478.59;4998788;28;20504;-67
2021/08/28 01:38:46;;;;;;;18.65;7.22;;;;;;;13.64;100.00;101483.78;4998017;28;20497;-67
2021/08/28 01:41:13;;;;;;;18.00;6.32;;;;;;;13.62;100.00;101486.44;5002025;28;20415;-67
2021/08/28 01:43:40;;;;;;;13.20;6.25;;;;;;;13.62;100.00;101480.31;5001977;28;20500;-67
2021/08/28 01:46:06;;;;;;;15.85;6.75;;;;;;;13.62;100.00;101481.22;4998112;28;20054;-67
2021/08/28 01:48:34;;;;;;;21.92;7.80;;;;;;;13.58;100.00;101478.66;5000176;28;20046;-66
2021/08/28 01:51:02;;;;;;;21.17;8.60;;;;;;;13.54;100.00;101483.09;5007605;28;20119;-67
2021/08/28 01:53:28;;;;;;;15.13;7.30;;;;;;;13.52;100.00;101480.50;5001422;28;20050;-67
2021/08/28 01:55:55;;;;;;;22.75;7.82;;;;;;;13.56;100.00;101477.84;4997609;28;20054;-69
2021/08/28 01:58:22;;;;;;;17.10;8.88;;;;;;;13.51;100.00;101473.56;4999909;28;20056;-66
2021/08/28 02:00:48;;;;;;;18.98;7.50;;;;;;;13.56;100.00;101481.31;5004027;28;20050;-67
2021/08/28 02:03:15;;;;;;;17.50;8.13;;;;;;;13.56;100.00;101477.84;4996472;28;20038;-66
2021/08/28 02:05:48;;;;;;;19.25;8.80;;;;;;;13.58;100.00;101484.75;5002026;28;20104;-67
2021/08/28 02:08:21;;;;;;;17.38;7.95;;;;;;;13.63;100.00;101477.66;5003234;28;20042;-68
2021/08/28 02:10:52;;;;;;;25.92;9.95;;;;;;;13.62;100.00;101481.22;5003661;28;20632;-67
2021/08/28 02:13:25;;;;;;;23.17;10.07;;;;;;;13.64;100.00;101476.78;4995037;28;20073;-67
2021/08/28 02:15:54;;;;;;;21.55;9.52;;;;;;;13.62;100.00;101488.16;4998212;28;20069;-67
2021/08/28 02:18:25;;;;;;;26.10;9.68;;;;;;;13.57;100.00;101493.50;5006269;28;20041;-67
2021/08/28 02:20:58;;;;;;;24.25;9.10;;;;;;;13.52;100.00;101483.13;5002609;28;20053;-67
2021/08/28 02:23:32;;;;;;;22.48;10.73;;;;;;;13.55;100.00;101484.81;4999732;28;20041;-67
2021/08/28 02:26:03;;;;;;;25.05;9.75;;;;;;;13.57;100.00;101482.19;4998181;28;20041;-67
2021/08/28 02:28:35;;;;;;;24.70;10.32;;;;;;;13.62;100.00;101478.59;4993746;28;20042;-67
2021/08/28 02:31:04;;;;;;;26.38;10.82;;;;;;;13.65;100.00;101490.72;4996807;28;20058;-67
2021/08/28 02:33:32;;;;;;;25.15;10.40;;;;;;;13.68;100.00;101480.19;5001294;28;20050;-67
2021/08/28 02:36:01;;;;;;;18.10;9.93;;;;;;;13.64;100.00;101479.41;5005381;28;20054;-67
2021/08/28 02:38:29;;;;;;;24.90;10.80;;;;;;;13.66;100.00;101482.84;5000773;28;20637;-67
2021/08/28 02:40:58;;;;;;;16.52;9.20;;;;;;;13.66;100.00;101487.22;5003180;28;20500;-67
2021/08/28 02:43:26;;;;;;;23.90;11.40;;;;;;;13.65;100.00;101481.13;5002228;28;20055;-67
2021/08/28 02:45:53;;;;;;;24.05;10.63;;;;;;;13.67;100.00;101488.97;4997675;28;20049;-67
2021/08/28 02:48:22;;;;;;;18.42;9.70;;;;;;;13.65;100.00;101483.72;5000683;28;20050;-67
2021/08/28 02:50:50;;;;;;;24.75;10.52;;;;;;;13.67;100.00;101475.88;5000098;28;20089;-68
2021/08/28 02:53:21;;;;;;;20.60;11.30;;;;;;;13.70;100.00;101482.78;5001184;28;20045;-67
2021/08/28 02:55:49;;;;;;;23.45;10.73;;;;;;;13.72;100.00;101486.25;4993692;28;20053;-67
2021/08/28 02:58:17;;;;;;;20.33;10.98;;;;;;;13.72;100.00;101481.88;5001285;28;20393;-68
2021/08/28 03:00:44;;;;;;;24.38;11.02;;;;;;;13.76;100.00;101475.69;4998947;28;20054;-68
2021/08/28 03:03:13;;;;;;;21.05;11.75;;;;;;;13.72;100.00;101478.41;4999981;28;20053;-68
2021/08/28 03:05:41;;;;;;;24.67;11.02;;;;;;;13.74;100.00;101476.59;5002202;28;20397;-69
2021/08/28 03:08:08;;;;;;;26.65;13.05;;;;;;;13.63;100.00;101479.44;5000993;28;20050;-69
2021/08/28 03:10:37;;;;;;;25.17;11.90;;;;;;;13.73;100.00;101474.88;4995201;28;20049;-67
2021/08/28 03:13:03;;;;;;;24.60;12.05;;;;;;;13.74;100.00;101477.47;4998503;28;20087;-67
2021/08/28 03:15:30;;;;;;;25.70;12.05;;;;;;;13.77;100.00;101482.66;4999606;28;20695;-67
2021/08/28 03:17:57;;;;;;;20.15;11.05;;;;;;;13.78;100.00;101475.66;5001433;28;20411;-67
2021/08/28 03:20:25;;;;;;;22.08;10.57;;;;;;;13.76;100.00;101477.44;5003976;28;20054;-67
2021/08/28 03:22:53;;;;;;;24.00;11.02;;;;;;;13.76;100.00;101466.97;5005307;28;20057;-67
2021/08/28 03:25:21;;;;;;;29.35;11.50;;;;;;;13.77;100.00;101468.69;5002922;28;20096;-67
2021/08/28 03:27:49;;;;;;;27.95;13.00;;;;;;;13.79;100.00;101467.75;5006714;28;20053;-68
2021/08/28 03:30:18;;;;;;;22.58;11.60;;;;;;;13.74;100.00;101463.53;4998911;28;20443;-68
2021/08/28 03:32:46;;;;;;;25.98;12.20;;;;;;;13.76;100.00;101462.63;4998920;28;20049;-69
2021/08/28 03:35:13;;;;;;;29.17;12.27;;;;;;;13.78;100.00;101465.19;5003595;28;20045;-69
2021/08/28 03:37:40;;;;;;;26.10;12.82;;;;;;;13.79;100.00;101457.31;5003105;28;20047;-68
2021/08/28 03:40:08;;;;;;;23.00;11.95;;;;;;;13.77;100.00;101460.84;5004352;28;20133;-69
2021/08/28 03:42:34;;;;;;;25.17;12.15;;;;;;;13.77;100.00;101450.38;4998850;28;20113;-68
2021/08/28 03:45:04;;;;;;;22.17;12.30;;;;;;;13.76;100.00;101446.06;4997297;28;20050;-68
2021/08/28 03:47:31;;;;;;;26.05;11.95;;;;;;;13.80;100.00;101445.09;4998235;28;20054;-69
2021/08/28 03:49:58;;;;;;;26.80;13.10;;;;;;;13.82;100.00;101445.94;5007054;28;20046;-68
2021/08/28 03:52:24;;;;;;;31.35;12.68;;;;;;;13.86;100.00;101449.34;5006000;28;20045;-68
2021/08/28 03:54:50;;;;;;;27.35;11.77;;;;;;;13.84;100.00;101449.34;4999043;28;20062;-69
2021/08/28 03:57:17;;;;;;;24.92;11.20;;;;;;;13.80;100.00;101439.88;5001786;28;20435;-68
2021/08/28 03:59:43;;;;;;;29.20;11.73;;;;;;;13.86;100.00;101437.13;5005587;28;20162;-68
2021/08/28 04:02:11;;;;;;;31.52;11.55;;;;;;;13.86;100.00;101446.72;4993412;28;20042;-68
2021/08/28 04:04:37;;;;;;;22.85;11.50;;;;;;;13.87;100.00;101441.47;5009823;28;20049;-68
2021/08/28 04:07:04;;;;;;;22.52;12.40;;;;;;;13.83;100.00;101440.66;5009793;28;20135;-69
2021/08/28 04:09:30;;;;;;;21.48;11.75;;;;;;;13.87;100.00;101440.63;5008106;28;20058;-69
2021/08/28 04:11:57;;;;;;;23.52;12.63;;;;;;;13.91;100.00;101435.28;5005453;28;20057;-67
2021/08/28 04:14:23;;;;;;;25.85;12.63;;;;;;;13.91;100.00;101424.81;5008409;28;20392;-69
2021/08/28 04:16:50;;;;;;;23.20;11.95;;;;;;;13.87;100.00;101428.38;4998116;28;20637;-70
2021/08/28 04:19:17;;;;;;;26.20;12.15;;;;;;;13.91;100.00;101429.16;5014059;28;20050;-69
2021/08/28 04:21:44;;;;;;;26.45;12.15;;;;;;;13.89;100.00;101433.56;5007154;28;20069;-69
2021/08/28 04:24:10;;;;;;;21.58;11.35;;;;;;;13.93;100.00;101423.00;5002393;28;20054;-68
2021/08/28 04:26:37;;;;;;;29.95;12.18;;;;;;;13.93;100.00;101423.00;5006662;28;20053;-69
2021/08/28 04:29:03;;;;;;;24.40;12.35;;;;;;;13.97;100.00;101415.97;5004394;28;20061;-69
2021/08/28 04:31:30;;;;;;;23.58;11.00;;;;;;;13.93;100.00;101412.53;5001270;28;20058;-68
2021/08/28 04:33:56;;;;;;;21.15;11.68;;;;;;;13.96;100.00;101412.47;5002186;28;20609;-67
2021/08/28 04:36:24;;;;;;;28.40;12.60;;;;;;;14.05;100.00;101407.94;5009886;28;20054;-69
2021/08/28 04:38:50;;;;;;;24.58;11.50;;;;;;;13.99;100.00;101411.53;5002633;28;20041;-69
2021/08/28 04:41:17;;;;;;;27.83;13.75;;;;;;;13.94;100.00;101413.41;5010223;28;20057;-69
2021/08/28 04:43:43;;;;;;;30.95;13.68;;;;;;;13.90;100.00;101420.47;5002188;28;20045;-68
2021/08/28 04:46:10;;;;;;;25.40;13.50;;;;;;;13.91;100.00;101411.75;5008765;28;20442;-69
2021/08/28 04:48:36;;;;;;;25.77;13.07;;;;;;;13.86;100.00;101421.44;5004797;28;20057;-69
2021/08/28 04:51:03;;;;;;;23.50;12.98;;;;;;;13.88;100.00;101430.09;5006455;28;20053;-68
2021/08/28 04:53:31;;;;;;;25.13;13.48;;;;;;;13.92;100.00;101430.91;5004548;28;20124;-68
2021/08/28 04:55:57;;;;;;;14.88;11.13;;;;;;;13.93;100.00;101428.22;5001870;28;20058;-69
2021/08/28 04:58:24;;;;;;;15.05;10.02;;;;;;;13.89;100.00;101437.06;5004706;28;20056;-69
2021/08/28 05:00:50;;;;;;;17.60;10.82;;;;;;;13.92;100.00;101429.16;5001758;28;20050;-69
2021/08/28 05:03:18;;;;;;;20.02;11.20;;;;;;;13.84;100.00;101431.94;5003383;28;20531;-69
2021/08/28 05:05:44;;;;;;;18.27;11.23;;;;;;;13.87;100.00;101435.38;5008625;28;20045;-69
2021/08/28 05:08:11;;;;;;;20.73;10.93;;;;;;;13.90;100.00;101435.28;4998042;28;20050;-70
2021/08/28 05:10:38;;;;;;;21.40;12.20;;;;;;;13.89;100.00;101442.28;4996837;28;20054;-69
2021/08/28 05:13:05;;;;;;;22.58;11.35;;;;;;;13.92;100.00;101444.84;4994558;28;20117;-69
2021/08/28 05:15:31;;;;;;;19.60;11.25;;;;;;;13.93;100.00;101441.31;4998397;28;20459;-69
2021/08/28 05:17:58;;;;;;;19.40;11.30;;;;;;;13.98;100.00;101444.69;5007447;28;20054;-69
2021/08/28 05:20:24;;;;;;;25.17;11.40;;;;;;;13.99;100.00;101442.94;5005704;28;20069;-69
2021/08/28 05:22:51;;;;;;;21.30;11.32;;;;;;;14.05;100.00;101447.16;5003225;28;20050;-69
2021/08/28 05:25:17;;;;;;;22.40;11.15;;;;;;;14.06;100.00;101454.13;5007043;28;20054;-69
2021/08/28 05:27:45;;;;;;;20.88;10.65;;;;;;;14.10;100.00;101455.78;5000169;28;20050;-68
2021/08/28 05:30:12;;;;;;;22.80;10.57;;;;;;;14.09;100.00;101452.28;5005614;28;20046;-69
2021/08/28 05:32:40;;;;;;;21.17;10.73;;;;;;;14.12;100.00;101451.41;5000972;28;20451;-68
2021/08/28 05:35:08;;;;;;;17.67;10.45;;;;;;;14.09;100.00;101454.06;5005541;28;20056;-69
2021/08/28 05:37:34;;;;;;;21.80;10.63;;;;;;;14.09;100.00;101457.53;5008142;28;20127;-68
2021/08/28 05:40:00;;;;;;;20.17;8.75;;;;;;;14.18;100.00;101455.59;5006508;28;20041;-68
2021/08/28 05:42:27;;;;;;;18.92;9.48;;;;;;;14.19;100.00;101455.59;5005061;28;20050;-69
2021/08/28 05:44:55;;;;;;;23.90;10.23;;;;;;;14.20;100.00;101457.31;5011571;28;20061;-68
2021/08/28 05:47:21;;;;;;;17.08;9.13;;;;;;;14.25;100.00;101455.44;4997407;28;20580;-67
2021/08/28 05:49:47;;;;;;;20.42;8.75;;;;;;;14.27;100.00;101455.41;5002541;28;20058;-69
2021/08/28 05:52:14;;;;;;;18.90;8.25;;;;;;;14.34;100.00;101459.59;5001286;28;20060;-69
2021/08/28 05:54:40;;;;;;;15.82;8.82;;;;;;;14.37;100.00;101463.91;4999649;28;20046;-69
2021/08/28 05:57:07;;;;;;;13.35;8.63;;;;;;;14.34;100.00;101469.19;5002090;28;20054;-68
2021/08/28 05:59:33;;;;;;;15.77;8.77;;;;;;;14.37;100.00;101464.78;5014474;28;20060;-68
2021/08/28 06:02:01;;;;;;;18.20;8.75;;;;;;;14.46;100.00;101467.19;4999987;28;20041;-69
2021/08/28 06:04:27;;;;;;;12.25;7.70;;;;;;;14.49;100.00;101467.97;5010350;28;20049;-68
2021/08/28 06:06:54;;;;;;;25.55;8.20;;;;;;;14.46;100.00;101461.06;5004672;28;20054;-69
2021/08/28 06:09:20;;;;;;;15.30;7.40;;;;;;;14.47;100.00;101468.03;4996096;28;20042;-68
2021/08/28 06:11:47;;;;;;;17.30;8.95;;;;;;;14.52;100.00;101462.66;5000404;28;20074;-68
2021/08/28 06:14:13;;;;;;;18.38;7.63;;;;;;;14.57;100.00;101468.66;5002959;28;20038;-68
2021/08/28 06:16:40;;;;;;;13.32;7.90;;;;;;;14.60;100.00;101466.84;5001593;28;20050;-67
2021/08/28 06:19:08;;;;;;;17.20;8.77;;;;;;;14.60;100.00;101466.84;5006963;28;20050;-68
2021/08/28 06:21:34;;;;;;;17.08;7.40;;;;;;;14.69;100.00;101467.53;5008482;28;20509;-69
2021/08/28 06:24:01;;;;;;;15.10;7.32;;;;;;;14.74;100.00;101469.16;4999155;28;20631;-68
2021/08/28 06:26:28;;;;;;;20.45;8.05;;;;;;;14.80;100.00;101470.75;5002258;28;20046;-68
2021/08/28 06:28:55;;;;;;;17.23;7.88;;;;;;;14.75;100.00;101460.41;5002386;28;20043;-69
2021/08/28 06:31:21;;;;;;;14.63;7.75;;;;;;;14.79;100.00;101471.66;5004673;28;20517;-68
2021/08/28 06:33:48;;;;;;;18.17;7.07;;;;;;;14.88;100.00;101473.16;4997946;28;20507;-68
2021/08/28 06:36:15;;;;;;;25.17;8.30;;;;;;;14.77;100.00;101470.81;5005088;28;20054;-69
2021/08/28 06:38:42;;;;;;;16.33;7.57;;;;;;;14.76;100.00;101474.34;5003268;28;20050;-68
2021/08/28 06:41:08;;;;;;;14.52;7.80;;;;;;;14.77;100.00;101468.19;5002209;28;20096;-68
2021/08/28 06:43:35;;;;;;;14.45;6.95;;;;;;;14.87;100.00;101474.94;5008946;28;20053;-68
2021/08/28 06:46:01;;;;;;;10.93;6.47;;;;;;;14.92;100.00;101472.19;5006964;28;20049;-70
2021/08/28 06:48:28;;;;;;;13.63;6.55;;;;;;;14.95;100.00;101472.13;5014023;28;21114;-69
2021/08/28 06:50:54;;;;;;;17.67;7.00;;;;;;;14.95;100.00;101468.63;4999981;28;20512;-68
2021/08/28 06:53:22;;;;;;;18.58;7.38;;;;;;;15.01;100.00;101468.47;5004375;28;20058;-70
2021/08/28 06:55:48;;;;;;;15.73;6.75;;;;;;;15.03;100.00;101467.53;5001273;28;20665;-69
2021/08/28 06:58:15;;;;;;;16.45;6.47;;;;;;;15.03;100.00;101464.03;5007126;28;20045;-69
2021/08/28 07:00:41;;;;;;;18.52;6.50;;;;;;;15.07;100.00;101468.31;5007447;28;20046;-70
2021/08/28 07:03:08;;;;;;;15.65;6.82;;;;;;;15.08;100.00;101463.03;5002016;28;20054;-67
2021/08/28 07:05:34;;;;;;;18.27;7.28;;;;;;;15.19;100.00;101461.88;5014778;28;20057;-69
2021/08/28 07:08:00;;;;;;;14.65;6.78;;;;;;;15.13;100.00;101460.28;5004454;28;20057;-69
2021/08/28 07:10:28;;;;;;;11.48;7.07;;;;;;;15.14;100.00;101472.47;5000420;28;20058;-68
2021/08/28 07:12:55;;;;;;;13.65;7.00;;;;;;;15.22;100.00;101474.91;5001678;28;20046;-68
2021/08/28 07:15:21;;;;;;;16.40;7.05;;;;;;;15.28;100.00;101468.63;4997950;28;20042;-69
2021/08/28 07:17:48;;;;;;;13.50;6.53;;;;;;;15.28;100.00;101472.09;5005687;28;20846;-67
2021/08/28 07:20:15;;;;;;;10.80;5.85;;;;;;;15.24;100.00;101468.72;5011327;28;20056;-68
2021/08/28 07:22:42;;;;;;;14.60;6.45;;;;;;;15.21;100.00;101468.81;5005636;28;20046;-68
2021/08/28 07:25:10;;;;;;;16.25;6.50;;;;;;;15.28;100.00;101468.63;5005266;28;20511;-68
2021/08/28 07:27:38;;;;;;;16.08;7.03;;;;;;;15.28;100.00;101460.78;5004029;28;20161;-70
2021/08/28 07:30:06;;;;;;;13.23;6.85;;;;;;;15.36;100.00;101467.53;5000458;28;20435;-68
2021/08/28 07:32:32;;;;;;;13.75;6.93;;;;;;;15.35;100.00;101459.69;5002964;28;20499;-69
2021/08/28 07:34:59;;;;;;;11.75;6.00;;;;;;;15.31;100.00;101464.16;4998199;28;20045;-68
2021/08/28 07:37:25;;;;;;;13.00;6.55;;;;;;;15.33;100.00;101466.75;5004580;28;20076;-69
2021/08/28 07:39:52;;;;;;;14.88;6.63;;;;;;;15.43;100.00;101473.44;5007633;28;20054;-67
2021/08/28 07:42:18;;;;;;;11.48;5.70;;;;;;;15.51;99.53;101470.63;4996442;28;20114;-67
2021/08/28 07:44:46;;;;;;;16.25;6.75;;;;;;;15.54;99.71;101467.91;5007445;28;20064;-68
2021/08/28 07:47:12;;;;;;;15.27;6.93;;;;;;;15.60;99.48;101480.00;4991602;28;20050;-69
2021/08/28 07:49:39;;;;;;;13.75;5.75;;;;;;;15.65;98.87;101472.84;4998067;28;20112;-68
2021/08/28 07:52:06;;;;;;;14.90;5.88;;;;;;;15.64;98.73;101477.25;5006274;28;20050;-66
2021/08/28 07:54:33;;;;;;;14.57;6.05;;;;;;;15.62;98.57;101470.34;4999716;28;20052;-68
2021/08/28 07:57:00;;;;;;;13.93;5.93;;;;;;;15.60;98.38;101477.38;5000975;28;20053;-67
2021/08/28 07:59:27;;;;;;;11.43;5.70;;;;;;;15.61;98.38;101476.47;5007358;28;20062;-67
2021/08/28 08:01:55;;;;;;;9.32;5.13;;;;;;;15.60;98.19;101480.84;5001168;28;20196;-67
2021/08/28 08:04:21;;;;;;;15.00;5.75;;;;;;;15.53;98.34;101474.91;5010769;28;20056;-67
2021/08/28 08:06:47;;;;;;;13.40;6.05;;;;;;;15.49;99.25;101491.66;5004124;28;20046;-67
2021/08/28 08:09:15;;;;;;;13.43;6.38;;;;;;;15.42;100.00;101484.88;4995248;28;20050;-67
2021/08/28 08:11:42;;;;;;;12.65;6.25;;;;;;;15.58;100.00;101490.50;4990338;28;20072;-69
2021/08/28 08:14:08;;;;;;;13.63;5.88;;;;;;;15.58;100.00;101484.44;4995687;28;20057;-68
2021/08/28 08:16:35;;;;;;;10.82;5.93;;;;;;;15.62;100.00;101483.44;4999243;28;20046;-68
2021/08/28 08:19:03;;;;;;;12.75;6.05;;;;;;;15.70;100.00;101486.69;5004764;28;20096;-67
2021/08/28 08:21:29;;;;;;;14.85;5.95;;;;;;;15.77;100.00;101485.63;5003191;28;20061;-68
2021/08/28 08:23:55;;;;;;;14.18;6.10;;;;;;;15.88;100.00;101493.19;5004629;28;20151;-68
2021/08/28 08:26:22;;;;;;;10.32;5.70;;;;;;;16.05;99.45;101494.47;5002919;28;20618;-67
2021/08/28 08:28:48;;;;;;;11.40;5.28;;;;;;;16.21;97.75;101492.25;5009433;28;20058;-69
2021/08/28 08:31:15;;;;;;;10.68;5.15;;;;;;;16.39;97.13;101489.03;5001117;28;20057;-67
2021/08/28 08:33:42;;;;;;;10.25;5.68;;;;;;;16.75;95.43;101496.63;5015204;28;20054;-69
2021/08/28 08:36:10;;;;;;;10.85;4.75;;;;;;;16.94;93.15;101496.03;4996243;28;20081;-69
2021/08/28 08:38:36;;;;;;;11.88;5.47;;;;;;;16.91;92.31;101510.13;5011501;28;20050;-68
2021/08/28 08:41:03;;;;;;;8.10;4.43;;;;;;;16.84;91.93;101510.38;5004372;28;20058;-67
2021/08/28 08:43:30;;;;;;;10.38;4.72;;;;;;;16.86;92.87;101505.94;5009046;28;20058;-69
2021/08/28 08:45:57;;;;;;;14.57;5.80;;;;;;;16.77;92.25;101510.59;4997640;28;20061;-68
2021/08/28 08:48:24;;;;;;;10.65;5.90;;;;;;;16.71;92.44;101510.78;5006544;28;20050;-66
2021/08/28 08:50:52;;;;;;;8.35;4.85;;;;;;;16.73;93.78;101506.31;5003041;28;20060;-68
2021/08/28 08:53:26;;;;;;;9.27;5.10;;;;;;;16.59;93.99;101508.56;4995501;28;20061;-68
2021/08/28 08:55:54;;;;;;;12.40;5.63;;;;;;;16.66;94.28;101506.59;4994687;28;21469;-69
2021/08/28 08:58:21;;;;;;;11.85;5.68;;;;;;;16.66;93.65;101509.22;4997898;28;20046;-69
2021/08/28 09:00:47;;;;;;;11.63;5.63;;;;;;;16.53;93.21;101500.84;4997382;28;20065;-69
2021/08/28 09:03:14;;;;;;;14.35;5.40;;;;;;;16.47;94.74;101502.78;4999222;28;20046;-71
2021/08/28 09:05:41;;;;;;;13.20;5.55;;;;;;;16.41;94.19;101508.25;5000738;28;20053;-70
2021/08/28 09:08:07;;;;;;;10.10;4.63;;;;;;;16.38;94.51;101504.81;5006942;28;20046;-74
2021/08/28 09:10:35;;;;;;;9.25;4.50;;;;;;;16.19;95.51;101501.94;4994742;28;20054;-72
2021/08/28 09:13:12;;;;;;;14.20;5.28;;;;;;;16.10;97.92;101500.44;5000683;28;20057;-74
2021/08/28 09:15:43;;;;;;;8.00;4.75;;;;;;;15.99;99.03;101500.75;5005819;28;20065;-69
2021/08/28 09:18:09;;;;;;;9.32;4.82;;;;;;;15.90;99.73;101504.50;4999503;28;20483;-69
2021/08/28 09:20:36;;;;;;;9.38;4.75;;;;;;;15.78;100.00;101505.69;5004306;28;20049;-70
2021/08/28 09:23:04;;;;;;;13.23;5.45;;;;;;;15.89;99.99;101504.56;5003580;28;20053;-68
2021/08/28 09:25:31;;;;;;;10.13;5.47;;;;;;;15.92;99.54;101502.69;4994436;28;20140;-68
2021/08/28 09:27:59;;;;;;;10.32;5.90;;;;;;;16.00;98.61;101505.09;5000822;28;20049;-68
2021/08/28 09:30:30;;;;;;;11.93;6.03;;;;;;;16.08;99.59;101505.72;4991695;28;20057;-69
2021/08/28 09:32:58;;;;;;;13.57;6.60;;;;;;;16.34;97.45;101506.69;4999389;28;20050;-68
2021/08/28 09:35:27;;;;;;;10.50;5.70;;;;;;;16.50;97.02;101507.06;4990053;28;20073;-70
2021/08/28 09:38:00;;;;;;;14.70;6.80;;;;;;;16.56;97.56;101511.28;4995763;28;20058;-68
2021/08/28 09:40:28;;;;;;;11.00;6.18;;;;;;;16.50;97.39;101514.09;4994097;28;20420;-68
2021/08/28 09:42:57;;;;;;;14.13;6.00;;;;;;;16.59;96.35;101513.81;5000414;28;20046;-70
2021/08/28 09:45:26;;;;;;;12.05;6.80;;;;;;;16.72;96.11;101515.13;4996352;28;20519;-69
2021/08/28 09:47:54;;;;;;;8.88;5.72;;;;;;;16.91;94.35;101509.28;4996707;28;20049;-69
2021/08/28 09:50:25;;;;;;;13.68;6.15;;;;;;;16.89;92.62;101508.47;4998836;28;20048;-67
2021/08/28 09:52:52;;;;;;;15.68;6.10;;;;;;;16.84;93.22;101513.00;4995191;28;20045;-72
2021/08/28 09:55:21;;;;;;;13.50;6.47;;;;;;;16.91;93.37;101511.91;4996938;28;20045;-68
2021/08/28 09:57:49;;;;;;;9.77;6.15;;;;;;;16.87;91.74;101520.78;4995383;28;20046;-69
2021/08/28 10:00:16;;;;;;;15.70;5.60;;;;;;;16.82;91.07;101526.19;4999877;28;20599;-68
2021/08/28 10:02:59;;;;;;;9.68;6.15;;;;;;;16.73;93.36;101529.13;4999304;28;20053;-68
2021/08/28 10:05:27;;;;;;;13.82;6.50;;;;;;;16.61;95.22;101525.13;4992800;28;20187;-70
2021/08/28 10:07:57;;;;;;;13.98;6.95;;;;;;;16.58;95.84;101528.69;4996556;28;20137;-69
2021/08/28 10:10:24;;;;;;;13.07;6.97;;;;;;;16.52;96.39;101533.31;4993690;28;20124;-69
2021/08/28 10:12:51;;;;;;;15.07;6.60;;;;;;;16.30;96.91;101532.19;4992170;28;20046;-69
2021/08/28 10:15:19;;;;;;;11.52;5.88;;;;;;;16.19;97.11;101546.56;4993263;28;20068;-69
2021/08/28 10:17:46;;;;;;;13.93;6.22;;;;;;;16.12;97.92;101544.09;4994009;28;20397;-70
2021/08/28 10:20:16;;;;;;;9.77;5.70;;;;;;;16.09;98.99;101549.44;5013180;28;20056;-70
2021/08/28 10:22:43;;;;;;;13.02;5.95;;;;;;;16.17;100.00;101549.19;5020658;28;20053;-70
2021/08/28 10:25:13;;;;;;;9.32;5.10;;;;;;;16.02;99.07;101540.00;5023271;28;20042;-69
2021/08/28 10:27:41;;;;;;;10.07;6.22;;;;;;;15.99;99.95;101543.59;5023926;28;20062;-69
2021/08/28 10:30:10;;;;;;;12.48;5.60;;;;;;;16.18;99.88;101545.66;5024325;28;20052;-69
2021/08/28 10:32:37;;;;;;;12.43;5.25;;;;;;;16.19;100.00;101542.16;5018503;28;20082;-69
2021/08/28 10:35:05;;;;;;;8.68;5.07;;;;;;;16.38;99.61;101542.47;5022847;28;20060;-70
2021/08/28 10:37:34;;;;;;;8.07;4.45;;;;;;;16.29;99.08;101554.09;5001641;28;20511;-69
2021/08/28 10:40:02;;;;;;;9.63;4.72;;;;;;;16.25;99.13;101551.59;5024591;28;20049;-68
2021/08/28 10:42:32;;;;;;;9.52;4.85;;;;;;;16.28;98.80;101546.28;5019232;28;20049;-69
2021/08/28 10:45:01;;;;;;;6.53;4.45;;;;;;;16.30;96.82;101555.81;5025682;28;20392;-68
2021/08/28 10:47:30;;;;;;;10.40;5.82;;;;;;;16.29;97.10;101558.50;5014461;28;20046;-69
2021/08/28 10:50:03;;;;;;;8.20;5.68;;;;;;;16.42;97.62;101549.31;5023698;28;20064;-67
2021/08/28 10:52:30;;;;;;;10.15;6.15;;;;;;;16.63;97.82;101547.81;5019310;28;20057;-69
2021/08/28 10:55:00;;;;;;;9.10;5.63;;;;;;;16.75;97.51;101540.44;5018755;28;20055;-69
2021/08/28 10:57:28;;;;;;;11.00;6.18;;;;;;;16.77;97.09;101544.72;5014901;28;20104;-69
2021/08/28 11:00:03;;;;;;;10.23;5.75;;;;;;;16.91;95.09;101543.44;5026094;28;20046;-69
2021/08/28 11:02:50;;;;;;;9.27;5.30;;;;;;;16.98;95.89;101547.59;5006807;28;20086;-69
2021/08/28 11:05:19;;;;;;;12.57;5.47;;;;;;;17.16;95.29;101550.53;5013519;28;20132;-69
2021/08/28 11:07:46;;;;;;;11.65;5.13;;;;;;;17.28;93.93;101555.38;5015206;28;20053;-68
2021/08/28 11:10:31;;;;;;;9.00;5.47;;;;;;;17.09;93.34;101544.59;5020536;28;20058;-69